Impacts TAF Board
For situational awareness. Not to be used for flight planning purposes.
IDs:

KISM - Kissimmee Muni, FL, US

Issued at 1146 UTC 03 Dec 2021
Updated at 1634 UTC 03 Dec 2021
Potential Impact None Slight Moderate High
Time1556Z 03/17Z 03/18Z 03/19Z 03/20Z 03/21Z 03/22Z 03/23Z 04/00Z 04/01Z 04/02Z 04/03Z 04/04Z 04/05Z>>
Type OBS PRVL PRVL PRVL PRVL PRVL PRVL PRVL PRVL PRVL PRVL PRVL PRVL PRVL
VIS 10 >6 >6 >6 >6 >6 >6 >6 >6 >6 >6 >6 >6 >6
CIG -- -- -- -- -- -- -- -- -- -- -- -- -- --
Cover CLR SCT SCT SCT SCT SCT SCT SCT SCT SCT SCT SCT SCT SCT
FltCat VFR VFR VFR VFR VFR VFR VFR VFR VFR VFR VFR VFR VFR VFR
WX -- -- -- -- -- -- -- -- -- -- -- -- -- --
WDir 10 340 340 340 VRB VRB VRB VRB VRB VRB VRB VRB VRB VRB
WSpd 8 5 5 5 3 3 3 3 3 3 3 3 3 3
WGst -- -- -- -- -- -- -- -- -- -- -- -- -- --
WSHgt -- -- -- -- -- -- -- -- -- -- -- -- -- --
WSDir -- -- -- -- -- -- -- -- -- -- -- -- -- --
WSSpd -- -- -- -- -- -- -- -- -- -- -- -- -- --
Raw TAF
KISM 031146Z 0312/0412 00000KT P6SM SCT300
  TEMPO 0312/0313 3SM BR SCT005
  FM031400 34005KT P6SM SCT300
  FM032000 VRB03KT P6SM SCT300
  TEMPO 0408/0412 3SM BR SCT010


Raw METAR
KISM 031556Z 01008KT 10SM CLR 22/13 A3018 RMK AO2 SLP219 T02170128 PNO $
KISM 031456Z VRB05KT 10SM CLR 20/13 A3018 RMK AO2 SLP221 6//// T02000133 53016 PNO $
KISM 031356Z 01006KT 10SM CLR 17/13 A3016 RMK AO2 SLP213 T01670133 PNO $

METAR Board
Radar Display
Forecast Discussion
For situational awareness. Not to be used for flight planning purposes.